DLH8FC EDDH-EDDN
Flight info
| Callsign | DLH8FC |
|---|---|
| Flight time | N/A |
| Altitude | 37000 |
| Route | AMLUH2G/33 AMLUH M852 DENIX DCT ZUCKA DCT GALMA M736 TABAT Q244 NIBIL/N0393F230 Q244 PIVIR PIVIR1V |
| Aircraft | A320/M-SDE3FGHIRWY/LB1 |
Departure
| Time | 2026-04-25 18:47 |
|---|---|
| Airport | Hamburg Helmut Schmidt Airport (EDDH) |
Arrival
| Time | N/A |
|---|---|
| Airport | Nuremberg Airport (EDDN) |
| Time | Latitude | Longitude | Altitude | Speed | Heading |
|---|---|---|---|---|---|
| 2026-04-25 18:19 | 53.63169 | 10.00362 | 46 ft | 0 kts | 87° |
| 2026-04-25 18:39 | 53.63168 | 10.00338 | 46 ft | 2 kts | 88° |
| 2026-04-25 18:39 | 53.63167 | 10.00311 | 46 ft | 2 kts | 88° |
| 2026-04-25 18:39 | 53.63167 | 10.00283 | 46 ft | 2 kts | 89° |
| 2026-04-25 18:39 | 53.63167 | 10.00256 | 46 ft | 2 kts | 90° |
| 2026-04-25 18:40 | 53.63167 | 10.00228 | 45 ft | 2 kts | 94° |
| 2026-04-25 18:40 | 53.63169 | 10.00201 | 44 ft | 2 kts | 112° |
| 2026-04-25 18:40 | 53.63178 | 10.00184 | 41 ft | 1 kts | 181° |
| 2026-04-25 18:40 | 53.63179 | 10.00184 | 41 ft | 0 kts | 175° |
| 2026-04-25 18:43 | 53.63173 | 10.00185 | 44 ft | 6 kts | 175° |
| 2026-04-25 18:43 | 53.63032 | 10.00133 | 46 ft | 17 kts | 223° |
| 2026-04-25 18:43 | 53.62996 | 10.00094 | 42 ft | 0 kts | 212° |
| 2026-04-25 18:44 | 53.62938 | 10.00034 | 46 ft | 5 kts | 210° |
| 2026-04-25 18:44 | 53.62909 | 10.00024 | 46 ft | 1 kts | 195° |
| 2026-04-25 18:44 | 53.62905 | 9.99955 | 46 ft | 3 kts | 256° |
| 2026-04-25 18:44 | 53.62905 | 9.99953 | 46 ft | 1 kts | 255° |
| 2026-04-25 18:45 | 53.62900 | 9.99924 | 46 ft | 9 kts | 250° |
| 2026-04-25 18:45 | 53.62898 | 9.99919 | 46 ft | 0 kts | 248° |
| 2026-04-25 18:45 | 53.62896 | 9.99908 | 44 ft | 6 kts | 248° |
| 2026-04-25 18:45 | 53.62873 | 9.99816 | 47 ft | 11 kts | 248° |
| 2026-04-25 18:46 | 53.62878 | 9.99724 | 47 ft | 13 kts | 317° |
| 2026-04-25 18:46 | 53.62908 | 9.99710 | 47 ft | 1 kts | 339° |
| 2026-04-25 18:46 | 53.62909 | 9.99709 | 47 ft | 0 kts | 336° |
| 2026-04-25 18:46 | 53.62913 | 9.99706 | 44 ft | 0 kts | 336° |
| 2026-04-25 18:47 | 53.62956 | 9.99674 | 46 ft | 25 kts | 336° |
| 2026-04-25 18:47 | 53.63347 | 9.99329 | 46 ft | 98 kts | 333° |
| 2026-04-25 18:47 | 53.64128 | 9.98648 | 56 ft | 151 kts | 324° |
| 2026-04-25 18:47 | 53.65060 | 9.97816 | 715 ft | 151 kts | 327° |
| 2026-04-25 18:48 | 53.65999 | 9.97006 | 1533 ft | 154 kts | 329° |
| 2026-04-25 18:48 | 53.67029 | 9.96152 | 1963 ft | 176 kts | 327° |
| 2026-04-25 18:48 | 53.68182 | 9.95181 | 2517 ft | 190 kts | 332° |
| 2026-04-25 18:48 | 53.69423 | 9.94532 | 3530 ft | 195 kts | 358° |
| 2026-04-25 18:49 | 53.70757 | 9.95095 | 4491 ft | 199 kts | 7° |
| 2026-04-25 18:49 | 53.72109 | 9.95457 | 4884 ft | 197 kts | 4° |
| 2026-04-25 18:49 | 53.73319 | 9.96682 | 4990 ft | 220 kts | 43° |
| 2026-04-25 18:49 | 53.74024 | 9.99075 | 5010 ft | 234 kts | 62° |
| 2026-04-25 18:50 | 53.74231 | 10.01852 | 5008 ft | 248 kts | 89° |
| 2026-04-25 18:50 | 53.73787 | 10.04743 | 5020 ft | 267 kts | 108° |
| 2026-04-25 18:50 | 53.72868 | 10.07570 | 5023 ft | 280 kts | 118° |
| 2026-04-25 18:50 | 53.71843 | 10.10533 | 5264 ft | 304 kts | 116° |
| 2026-04-25 18:51 | 53.70803 | 10.13663 | 6263 ft | 308 kts | 116° |
| 2026-04-25 18:51 | 53.70071 | 10.15742 | 6858 ft | 314 kts | 122° |
| 2026-04-25 18:51 | 53.68052 | 10.19413 | 8000 ft | 325 kts | 143° |
| 2026-04-25 18:51 | 53.66114 | 10.21407 | 8877 ft | 329 kts | 160° |
| 2026-04-25 18:52 | 53.63950 | 10.22644 | 9762 ft | 330 kts | 171° |
| 2026-04-25 18:52 | 53.61694 | 10.23667 | 10436 ft | 344 kts | 171° |
| 2026-04-25 18:52 | 53.59303 | 10.24733 | 10787 ft | 368 kts | 171° |
| 2026-04-25 18:52 | 53.56766 | 10.25864 | 11249 ft | 385 kts | 170° |
| 2026-04-25 18:53 | 53.54156 | 10.27044 | 11948 ft | 391 kts | 169° |
| 2026-04-25 18:53 | 53.51515 | 10.28259 | 12763 ft | 396 kts | 169° |
| 2026-04-25 18:53 | 53.48828 | 10.29398 | 13542 ft | 400 kts | 172° |
| 2026-04-25 18:53 | 53.46097 | 10.30397 | 14243 ft | 404 kts | 173° |
| 2026-04-25 18:54 | 53.40516 | 10.32222 | 15612 ft | 413 kts | 174° |
| 2026-04-25 18:54 | 53.37680 | 10.33137 | 16317 ft | 418 kts | 174° |
| 2026-04-25 18:54 | 53.34804 | 10.34085 | 16964 ft | 423 kts | 174° |
| 2026-04-25 18:55 | 53.31902 | 10.35064 | 17622 ft | 428 kts | 174° |
| 2026-04-25 18:55 | 53.28965 | 10.36071 | 18250 ft | 433 kts | 173° |
| 2026-04-25 18:55 | 53.26020 | 10.37095 | 18930 ft | 433 kts | 173° |
| 2026-04-25 18:55 | 53.23060 | 10.38128 | 19558 ft | 435 kts | 173° |
| 2026-04-25 18:56 | 53.20080 | 10.39160 | 20144 ft | 439 kts | 173° |
| 2026-04-25 18:56 | 53.17078 | 10.40189 | 20704 ft | 442 kts | 173° |
| 2026-04-25 18:56 | 53.14055 | 10.41219 | 21261 ft | 446 kts | 173° |
| 2026-04-25 18:56 | 53.11003 | 10.42256 | 21822 ft | 449 kts | 173° |
| 2026-04-25 18:57 | 53.07924 | 10.43301 | 22366 ft | 452 kts | 173° |
| 2026-04-25 18:57 | 53.04837 | 10.44349 | 22893 ft | 456 kts | 173° |
| 2026-04-25 18:57 | 53.01719 | 10.45411 | 23429 ft | 459 kts | 173° |
| 2026-04-25 18:57 | 52.99639 | 10.46120 | 23751 ft | 461 kts | 173° |